createdAt,value
2019-05-22T00:01:10.177Z,13.70
2019-05-22T00:03:27.341Z,14.00
2019-05-22T00:05:34.763Z,12.23
2019-05-22T00:07:38.665Z,14.75
2019-05-22T00:09:43.596Z,12.98
2019-05-22T00:11:48.551Z,12.70
2019-05-22T00:13:51.982Z,14.05
2019-05-22T00:15:56.927Z,13.20
2019-05-22T00:18:01.843Z,12.95
2019-05-22T00:20:06.489Z,14.20
2019-05-22T00:22:11.432Z,13.93
2019-05-22T00:24:15.550Z,14.50
2019-05-22T00:26:19.539Z,13.45
2019-05-22T00:28:23.766Z,14.25
2019-05-22T00:30:28.876Z,13.70
2019-05-22T00:32:33.772Z,16.23
2019-05-22T00:34:37.577Z,14.50
2019-05-22T00:36:40.825Z,13.85
2019-05-22T00:38:44.561Z,13.20
2019-05-22T00:40:53.193Z,14.23
2019-05-22T00:43:04.130Z,14.03
2019-05-22T00:45:04.753Z,12.90
2019-05-22T00:47:09.672Z,12.73
2019-05-22T00:49:13.881Z,12.93
2019-05-22T00:51:21.744Z,12.10
2019-05-22T00:53:38.742Z,12.85
2019-05-22T00:55:43.622Z,11.33
2019-05-22T00:57:48.524Z,11.93
2019-05-22T00:59:53.910Z,13.40
2019-05-22T01:02:14.749Z,12.80
2019-05-22T01:04:22.426Z,12.43
2019-05-22T01:06:26.219Z,12.43
2019-05-22T01:08:29.729Z,13.40
2019-05-22T01:10:33.066Z,12.35
2019-05-22T01:12:37.990Z,12.55
2019-05-22T01:14:43.122Z,12.13
2019-05-22T01:16:48.285Z,11.03
2019-05-22T01:18:53.254Z,11.57
2019-05-22T01:20:58.930Z,12.25
2019-05-22T01:23:02.744Z,11.33
2019-05-22T01:25:06.819Z,12.03
2019-05-22T01:27:11.226Z,11.33
2019-05-22T01:29:16.271Z,11.33
2019-05-22T01:31:21.185Z,11.88
2019-05-22T01:33:26.177Z,11.20
2019-05-22T01:35:36.793Z,11.68
2019-05-22T01:37:41.673Z,11.00
2019-05-22T01:39:57.952Z,10.68
2019-05-22T01:42:02.109Z,9.85
2019-05-22T01:44:06.905Z,11.18
2019-05-22T01:46:11.813Z,10.40
2019-05-22T01:48:17.155Z,10.58
2019-05-22T01:50:38.594Z,10.30
2019-05-22T01:52:42.624Z,9.78
2019-05-22T01:54:46.614Z,10.60
2019-05-22T01:56:51.472Z,11.60
2019-05-22T01:58:54.865Z,11.08
2019-05-22T02:00:58.905Z,11.35
2019-05-22T02:03:02.832Z,11.12
2019-05-22T02:05:08.414Z,10.78
2019-05-22T02:07:11.713Z,10.85
2019-05-22T02:09:21.602Z,13.55
2019-05-22T02:11:26.490Z,10.63
2019-05-22T02:13:39.083Z,11.90
2019-05-22T02:15:43.569Z,9.85
2019-05-22T02:17:48.121Z,12.10
2019-05-22T02:19:51.746Z,11.08
2019-05-22T02:21:55.384Z,11.80
2019-05-22T02:23:58.634Z,11.70
2019-05-22T02:26:04.800Z,10.98
2019-05-22T02:28:09.087Z,11.88
2019-05-22T02:30:13.992Z,10.53
2019-05-22T02:32:18.881Z,10.95
2019-05-22T02:34:22.716Z,11.12
2019-05-22T02:36:26.996Z,10.23
2019-05-22T02:38:31.594Z,10.43
2019-05-22T02:40:36.473Z,10.50
2019-05-22T02:42:40.326Z,9.65
2019-05-22T02:44:45.700Z,10.18
2019-05-22T02:46:49.705Z,10.15
2019-05-22T02:48:53.010Z,11.50
2019-05-22T02:50:57.105Z,10.00
2019-05-22T02:53:00.490Z,9.93
2019-05-22T02:55:06.213Z,10.88
2019-05-22T02:57:11.206Z,10.53
2019-05-22T02:59:15.197Z,9.38
2019-05-22T03:01:19.494Z,11.08
2019-05-22T03:03:23.728Z,10.55
2019-05-22T03:05:27.384Z,10.72
2019-05-22T03:07:31.605Z,12.70
2019-05-22T03:09:35.334Z,9.55
2019-05-22T03:11:56.822Z,9.05
2019-05-22T03:14:01.572Z,8.55
2019-05-22T03:16:06.542Z,9.90
2019-05-22T03:18:10.421Z,9.93
2019-05-22T03:20:17.517Z,8.53
2019-05-22T03:22:37.917Z,10.25
2019-05-22T03:24:41.309Z,9.80
2019-05-22T03:26:47.879Z,9.15
2019-05-22T03:28:51.157Z,9.33
2019-05-22T03:30:54.398Z,9.38
2019-05-22T03:32:59.255Z,10.88
2019-05-22T03:35:02.544Z,10.88
2019-05-22T03:37:06.953Z,9.95
2019-05-22T03:39:11.030Z,9.93
2019-05-22T03:41:14.634Z,10.00
2019-05-22T03:43:20.677Z,9.70
2019-05-22T03:45:25.174Z,9.28
2019-05-22T03:47:28.422Z,9.45
2019-05-22T03:49:32.161Z,9.10
2019-05-22T03:51:35.667Z,9.50
2019-05-22T03:53:39.186Z,9.48
2019-05-22T03:55:42.422Z,10.85
2019-05-22T03:57:45.693Z,9.80
2019-05-22T03:59:49.222Z,9.53
2019-05-22T04:01:52.469Z,9.63
2019-05-22T04:03:56.818Z,9.90
2019-05-22T04:06:01.135Z,10.58
2019-05-22T04:08:05.153Z,10.50
2019-05-22T04:10:10.384Z,9.60
2019-05-22T04:12:14.364Z,10.23
2019-05-22T04:14:18.381Z,10.63
2019-05-22T04:16:24.735Z,10.70
2019-05-22T04:18:28.062Z,11.12
2019-05-22T04:20:31.349Z,10.80
2019-05-22T04:22:35.117Z,11.73
2019-05-22T04:24:40.794Z,10.38
2019-05-22T04:26:44.092Z,9.95
2019-05-22T04:28:49.046Z,10.13
2019-05-22T04:30:52.723Z,11.35
2019-05-22T04:32:56.740Z,10.98
2019-05-22T04:35:00.378Z,10.23
2019-05-22T04:37:05.402Z,10.13
2019-05-22T04:39:13.011Z,10.32
2019-05-22T04:41:16.507Z,11.25
2019-05-22T04:43:21.220Z,10.75
2019-05-22T04:45:25.519Z,11.80
2019-05-22T04:47:29.746Z,10.60
2019-05-22T04:49:33.381Z,10.50
2019-05-22T04:51:36.726Z,11.60
2019-05-22T04:53:40.415Z,10.80
2019-05-22T04:55:43.746Z,9.48
2019-05-22T04:57:47.392Z,9.95
2019-05-22T04:59:51.266Z,8.68
2019-05-22T05:01:54.822Z,9.10
2019-05-22T05:03:58.339Z,9.75
2019-05-22T05:06:06.359Z,9.30
2019-05-22T05:08:07.380Z,9.10
2019-05-22T05:10:10.815Z,9.43
2019-05-22T05:12:14.067Z,9.33
2019-05-22T05:14:17.330Z,9.15
2019-05-22T05:16:20.620Z,10.43
2019-05-22T05:18:23.862Z,8.70
2019-05-22T05:20:27.126Z,8.85
2019-05-22T05:22:42.297Z,9.20
2019-05-22T05:24:45.649Z,9.45
2019-05-22T05:26:48.992Z,9.80
2019-05-22T05:28:52.327Z,8.83
2019-05-22T05:30:55.668Z,9.48
2019-05-22T05:32:59.694Z,9.85
2019-05-22T05:35:05.450Z,9.20
2019-05-22T05:37:10.123Z,9.90
2019-05-22T05:39:33.522Z,8.55
2019-05-22T05:41:36.757Z,9.28
2019-05-22T05:43:40.370Z,10.32
2019-05-22T05:45:44.500Z,9.35
2019-05-22T05:47:47.828Z,9.88
2019-05-22T05:49:51.192Z,10.55
2019-05-22T05:51:56.161Z,9.50
2019-05-22T05:54:02.364Z,9.50
2019-05-22T05:56:14.158Z,9.28
2019-05-22T05:58:28.572Z,9.03
2019-05-22T06:00:33.551Z,9.60
2019-05-22T06:02:37.854Z,10.10
2019-05-22T06:04:41.099Z,9.65
2019-05-22T06:06:59.777Z,10.08
2019-05-22T06:09:00.499Z,9.68
2019-05-22T06:11:26.619Z,10.32
2019-05-22T06:13:30.572Z,10.18
2019-05-22T06:15:47.064Z,9.15
2019-05-22T06:18:10.673Z,8.68
2019-05-22T06:20:16.988Z,9.40
2019-05-22T06:22:21.679Z,9.55
2019-05-22T06:24:35.920Z,10.15
2019-05-22T06:26:45.229Z,10.58
2019-05-22T06:28:48.521Z,10.88
2019-05-22T06:30:52.043Z,9.60
2019-05-22T06:33:12.416Z,10.13
2019-05-22T06:35:15.992Z,10.18
2019-05-22T06:37:31.976Z,11.55
2019-05-22T06:39:35.287Z,10.23
2019-05-22T06:41:38.921Z,10.55
2019-05-22T06:43:45.610Z,10.85
2019-05-22T06:45:48.879Z,9.80
2019-05-22T06:47:52.129Z,10.53
2019-05-22T06:49:56.123Z,10.72
2019-05-22T06:51:59.396Z,11.35
2019-05-22T06:54:02.654Z,10.45
2019-05-22T06:56:05.986Z,11.22
2019-05-22T06:58:09.243Z,11.18
2019-05-22T07:00:14.861Z,10.90
2019-05-22T07:02:17.791Z,10.63
2019-05-22T07:04:21.734Z,10.40
2019-05-22T07:06:25.194Z,10.98
2019-05-22T07:08:28.425Z,9.95
2019-05-22T07:10:31.728Z,9.30
2019-05-22T07:12:35.930Z,10.60
2019-05-22T07:14:43.308Z,9.78
2019-05-22T07:16:48.499Z,9.45
2019-05-22T07:18:51.765Z,8.55
2019-05-22T07:20:56.669Z,9.23
2019-05-22T07:23:01.564Z,9.15
2019-05-22T07:25:09.421Z,9.53
2019-05-22T07:27:25.270Z,9.60
2019-05-22T07:29:29.426Z,8.68
2019-05-22T07:31:33.182Z,9.65
2019-05-22T07:33:36.439Z,9.00
2019-05-22T07:35:56.697Z,8.88
2019-05-22T07:37:46.552Z,10.15
2019-05-22T07:39:49.960Z,9.23
2019-05-22T07:41:53.318Z,8.75
2019-05-22T07:43:56.570Z,9.45
2019-05-22T07:46:00.596Z,9.50
2019-05-22T07:48:04.466Z,9.35
2019-05-22T07:50:08.035Z,9.60
2019-05-22T07:52:11.630Z,9.73
2019-05-22T07:54:14.873Z,9.78
2019-05-22T07:56:18.329Z,9.23
2019-05-22T07:58:21.657Z,9.60
2019-05-22T08:00:24.932Z,9.50
2019-05-22T08:02:32.117Z,9.50
2019-05-22T08:04:35.549Z,8.93
2019-05-22T08:06:38.885Z,8.90
2019-05-22T08:08:42.875Z,8.38
2019-05-22T08:10:46.579Z,8.73
2019-05-22T08:12:50.224Z,7.55
2019-05-22T08:14:53.478Z,6.97
2019-05-22T08:16:56.819Z,7.72
2019-05-22T08:19:00.374Z,8.05
2019-05-22T08:21:03.820Z,7.70
2019-05-22T08:23:07.512Z,7.50
2019-05-22T08:25:10.771Z,6.97
2019-05-22T08:27:14.871Z,7.50
2019-05-22T08:29:18.133Z,5.97
2019-05-22T08:31:22.916Z,6.37
2019-05-22T08:33:26.449Z,5.90
2019-05-22T08:35:29.696Z,6.47
2019-05-22T08:37:33.222Z,7.30
2019-05-22T08:39:37.981Z,6.42
2019-05-22T08:41:42.482Z,6.50
2019-05-22T08:44:14.457Z,7.37
2019-05-22T08:45:51.361Z,7.60
2019-05-22T08:47:54.793Z,7.30
2019-05-22T08:49:58.050Z,7.90
2019-05-22T08:52:01.393Z,7.42
2019-05-22T08:54:06.031Z,7.87
2019-05-22T08:56:09.594Z,8.15
2019-05-22T08:58:14.571Z,7.47
2019-05-22T09:00:20.627Z,7.78
2019-05-22T09:02:23.870Z,6.75
2019-05-22T09:04:27.143Z,8.03
2019-05-22T09:06:30.372Z,7.83
2019-05-22T09:08:33.671Z,7.28
2019-05-22T09:10:37.002Z,7.78
2019-05-22T09:12:42.163Z,7.45
2019-05-22T09:14:45.435Z,8.30
2019-05-22T09:16:48.703Z,8.05
2019-05-22T09:18:52.452Z,8.03
2019-05-22T09:20:57.898Z,8.85
2019-05-22T09:23:01.526Z,7.65
2019-05-22T09:25:07.268Z,7.95
2019-05-22T09:27:11.413Z,6.80
2019-05-22T09:29:14.667Z,7.47
2019-05-22T09:31:18.216Z,7.78
2019-05-22T09:33:21.525Z,8.33
2019-05-22T09:35:25.091Z,7.72
2019-05-22T09:37:28.625Z,7.53
2019-05-22T09:39:32.174Z,8.05
2019-05-22T09:41:36.021Z,7.97
2019-05-22T09:43:39.373Z,6.92
2019-05-22T09:45:42.713Z,7.40
2019-05-22T09:47:46.105Z,7.25
2019-05-22T09:49:49.427Z,6.95
2019-05-22T09:51:52.959Z,6.97
2019-05-22T09:53:56.791Z,7.83
2019-05-22T09:56:00.177Z,8.73
2019-05-22T09:58:03.500Z,16.82
2019-05-22T10:00:10.843Z,9.63
2019-05-22T10:02:14.475Z,18.02
2019-05-22T10:04:17.818Z,14.38
2019-05-22T10:06:21.860Z,10.90
2019-05-22T10:08:25.271Z,8.03
2019-05-22T10:10:28.998Z,12.63
2019-05-22T10:12:32.338Z,8.68
2019-05-22T10:14:36.121Z,16.52
2019-05-22T10:16:39.388Z,16.57
2019-05-22T10:18:42.718Z,10.95
2019-05-22T10:20:45.997Z,10.70
2019-05-22T10:22:49.355Z,10.60
2019-05-22T10:24:52.670Z,8.73
2019-05-22T10:26:56.145Z,10.15
2019-05-22T10:28:59.517Z,7.22
2019-05-22T10:31:03.472Z,9.15
2019-05-22T10:33:07.604Z,9.35
2019-05-22T10:35:12.346Z,7.30
2019-05-22T10:37:16.425Z,8.88
2019-05-22T10:39:20.643Z,6.72
2019-05-22T10:41:23.902Z,7.42
2019-05-22T10:43:27.296Z,8.18
2019-05-22T10:45:30.688Z,7.10
2019-05-22T10:47:34.519Z,7.28
2019-05-22T10:49:38.104Z,7.05
2019-05-22T10:51:41.427Z,6.58
2019-05-22T10:53:44.707Z,6.95
2019-05-22T10:55:47.969Z,7.05
2019-05-22T10:57:51.447Z,6.75
2019-05-22T10:59:54.879Z,6.72
2019-05-22T11:01:58.164Z,6.75
2019-05-22T11:04:01.440Z,6.80
2019-05-22T11:06:07.474Z,7.10
2019-05-22T11:08:10.319Z,6.70
2019-05-22T11:10:13.660Z,6.40
2019-05-22T11:12:17.182Z,6.62
2019-05-22T11:14:20.462Z,6.85
2019-05-22T11:16:23.772Z,6.00
2019-05-22T11:18:27.106Z,5.87
2019-05-22T11:20:31.671Z,6.33
2019-05-22T11:22:36.360Z,6.42
2019-05-22T11:24:39.624Z,6.78
2019-05-22T11:26:43.696Z,5.58
2019-05-22T11:28:47.531Z,5.42
2019-05-22T11:30:51.168Z,5.97
2019-05-22T11:32:56.007Z,5.83
2019-05-22T11:34:59.413Z,5.78
2019-05-22T11:37:03.140Z,5.37
2019-05-22T11:39:09.024Z,5.22
2019-05-22T11:41:12.707Z,5.30
2019-05-22T11:43:16.042Z,4.80
2019-05-22T11:45:19.596Z,4.92
2019-05-22T11:47:23.108Z,4.50
2019-05-22T11:49:26.831Z,4.97
2019-05-22T11:51:30.107Z,5.03
2019-05-22T11:53:33.330Z,4.87
2019-05-22T11:55:45.259Z,5.12
2019-05-22T11:57:42.563Z,5.25
2019-05-22T11:59:46.174Z,4.37
2019-05-22T12:01:49.719Z,5.80
2019-05-22T12:03:53.027Z,4.80
2019-05-22T12:05:56.372Z,4.83
2019-05-22T12:08:00.027Z,4.65
2019-05-22T12:10:04.198Z,5.10
2019-05-22T12:12:07.986Z,5.33
2019-05-22T12:14:11.264Z,4.67
2019-05-22T12:16:15.778Z,5.25
2019-05-22T12:18:19.202Z,5.10
2019-05-22T12:20:22.801Z,5.15
2019-05-22T12:22:26.081Z,4.85
2019-05-22T12:24:36.639Z,5.37
2019-05-22T12:26:34.355Z,5.70
2019-05-22T12:28:37.613Z,6.25
2019-05-22T12:30:41.437Z,5.25
2019-05-22T12:32:44.699Z,5.40
2019-05-22T12:34:49.541Z,5.90
2019-05-22T12:36:53.770Z,5.50
2019-05-22T12:38:57.318Z,5.67
2019-05-22T12:41:01.307Z,5.47
2019-05-22T12:43:05.516Z,6.58
2019-05-22T12:45:09.254Z,5.95
2019-05-22T12:47:12.799Z,4.83
2019-05-22T12:49:16.137Z,6.45
2019-05-22T12:51:20.673Z,5.10
2019-05-22T12:53:24.169Z,6.25
2019-05-22T12:55:27.481Z,5.80
2019-05-22T12:57:30.826Z,5.15
2019-05-22T12:59:34.164Z,5.30
2019-05-22T13:01:38.703Z,5.10
2019-05-22T13:03:41.986Z,6.05
2019-05-22T13:05:45.743Z,6.25
2019-05-22T13:07:49.422Z,6.15
2019-05-22T13:09:52.747Z,6.20
2019-05-22T13:11:56.405Z,5.47
2019-05-22T13:13:59.729Z,5.78
2019-05-22T13:16:03.181Z,6.12
2019-05-22T13:18:08.208Z,6.25
2019-05-22T13:20:13.219Z,6.25
2019-05-22T13:22:16.476Z,6.22
2019-05-22T13:24:20.482Z,6.40
2019-05-22T13:26:25.276Z,6.35
2019-05-22T13:28:29.217Z,5.90
2019-05-22T13:30:32.547Z,5.87
2019-05-22T13:32:35.810Z,5.75
2019-05-22T13:34:39.276Z,6.30
2019-05-22T13:36:42.678Z,5.53
2019-05-22T13:38:46.064Z,6.40
2019-05-22T13:40:49.857Z,5.90
2019-05-22T13:42:55.833Z,6.20
2019-05-22T13:44:59.116Z,5.60
2019-05-22T13:47:02.800Z,5.97
2019-05-22T13:49:06.210Z,6.50
2019-05-22T13:51:10.807Z,6.45
2019-05-22T13:53:14.614Z,5.95
2019-05-22T13:55:17.950Z,6.20
2019-05-22T13:57:21.567Z,5.55
2019-05-22T13:59:25.426Z,6.30
2019-05-22T14:01:28.744Z,5.45
2019-05-22T14:03:32.528Z,5.97
2019-05-22T14:05:36.464Z,6.12
2019-05-22T14:07:39.752Z,6.53
2019-05-22T14:09:43.608Z,7.12
2019-05-22T14:11:46.933Z,5.97
2019-05-22T14:13:50.600Z,6.78
2019-05-22T14:15:56.899Z,6.55
2019-05-22T14:17:59.201Z,6.03
2019-05-22T14:20:02.648Z,6.17
2019-05-22T14:22:06.700Z,6.03
2019-05-22T14:24:10.025Z,5.75
2019-05-22T14:26:13.420Z,6.50
2019-05-22T14:28:17.753Z,5.58
2019-05-22T14:30:22.671Z,5.55
2019-05-22T14:32:29.819Z,5.90
2019-05-22T14:34:31.259Z,5.78
2019-05-22T14:36:34.536Z,6.33
2019-05-22T14:38:37.816Z,6.55
2019-05-22T14:40:41.120Z,5.75
2019-05-22T14:42:44.570Z,6.20
2019-05-22T14:44:47.829Z,6.12
2019-05-22T14:46:51.096Z,5.92
2019-05-22T14:48:54.446Z,6.75
2019-05-22T14:50:58.292Z,6.55
2019-05-22T14:53:01.671Z,6.50
2019-05-22T14:55:06.520Z,5.65
2019-05-22T14:57:10.889Z,6.92
2019-05-22T14:59:14.171Z,5.80
2019-05-22T15:01:17.540Z,5.90
2019-05-22T15:03:20.973Z,6.90
2019-05-22T15:05:24.234Z,5.90
2019-05-22T15:07:27.523Z,5.83
2019-05-22T15:09:30.808Z,6.35
2019-05-22T15:11:34.349Z,6.12
2019-05-22T15:13:37.624Z,5.55
2019-05-22T15:15:41.060Z,6.65
2019-05-22T15:17:44.368Z,6.33
2019-05-22T15:19:47.652Z,5.62
2019-05-22T15:21:50.956Z,5.95
2019-05-22T15:23:55.122Z,6.17
2019-05-22T15:25:59.274Z,6.62
2019-05-22T15:28:02.894Z,5.90
2019-05-22T15:30:07.178Z,7.25
2019-05-22T15:32:10.551Z,6.25
2019-05-22T15:34:13.999Z,7.40
2019-05-22T15:36:19.948Z,6.58
2019-05-22T15:38:23.903Z,6.05
2019-05-22T15:40:28.003Z,5.80
2019-05-22T15:42:36.927Z,6.22
2019-05-22T15:44:40.283Z,6.33
2019-05-22T15:46:43.935Z,6.20
2019-05-22T15:48:47.588Z,5.55
2019-05-22T15:50:51.163Z,5.78
2019-05-22T15:52:55.685Z,5.95
2019-05-22T15:54:59.676Z,6.17
2019-05-22T15:57:03.672Z,6.78
2019-05-22T15:59:08.518Z,6.90
2019-05-22T16:01:12.922Z,7.22
2019-05-22T16:03:22.622Z,5.90
2019-05-22T16:05:26.737Z,6.78
2019-05-22T16:07:30.202Z,6.53
2019-05-22T16:09:35.018Z,6.45
2019-05-22T16:11:38.855Z,6.85
2019-05-22T16:13:42.849Z,7.40
2019-05-22T16:15:48.537Z,6.62
2019-05-22T16:18:09.896Z,6.47
2019-05-22T16:19:58.213Z,6.92
2019-05-22T16:22:03.925Z,6.58
2019-05-22T16:24:07.837Z,7.25
2019-05-22T16:26:12.559Z,6.53
2019-05-22T16:28:16.234Z,6.67
2019-05-22T16:30:19.814Z,7.17
2019-05-22T16:32:23.162Z,6.85
2019-05-22T16:34:28.546Z,6.53
2019-05-22T16:36:32.581Z,6.10
2019-05-22T16:38:36.751Z,6.00
2019-05-22T16:40:40.103Z,6.50
2019-05-22T16:42:43.513Z,6.17
2019-05-22T16:44:46.966Z,5.72
2019-05-22T16:46:50.614Z,5.12
2019-05-22T16:48:54.298Z,5.78
2019-05-22T16:50:58.486Z,6.10
2019-05-22T16:53:04.504Z,5.87
2019-05-22T16:55:09.649Z,6.37
2019-05-22T16:57:12.959Z,5.87
2019-05-22T16:59:16.544Z,6.08
2019-05-22T17:01:21.166Z,6.05
2019-05-22T17:03:25.137Z,6.50
2019-05-22T17:05:29.683Z,5.80
2019-05-22T17:07:33.094Z,5.08
2019-05-22T17:09:37.362Z,5.17
2019-05-22T17:11:40.827Z,6.08
2019-05-22T17:13:44.188Z,5.40
2019-05-22T17:15:47.536Z,6.58
2019-05-22T17:17:50.777Z,5.75
2019-05-22T17:19:54.111Z,5.42
2019-05-22T17:21:58.066Z,6.15
2019-05-22T17:24:01.939Z,6.35
2019-05-22T17:26:05.476Z,6.28
2019-05-22T17:28:08.766Z,5.28
2019-05-22T17:30:12.570Z,5.97
2019-05-22T17:32:16.589Z,6.22
2019-05-22T17:34:33.856Z,5.47
2019-05-22T17:36:37.353Z,5.12
2019-05-22T17:38:40.971Z,5.70
2019-05-22T17:40:44.556Z,5.72
2019-05-22T17:42:48.802Z,5.53
2019-05-22T17:44:52.879Z,5.65
2019-05-22T17:46:56.153Z,5.80
2019-05-22T17:48:59.447Z,6.35
2019-05-22T17:51:03.080Z,5.15
2019-05-22T17:53:06.394Z,5.20
2019-05-22T17:55:09.908Z,4.78
2019-05-22T17:57:13.885Z,4.85
2019-05-22T17:59:17.162Z,5.37
2019-05-22T18:01:20.974Z,5.08
2019-05-22T18:03:24.435Z,5.05
2019-05-22T18:05:28.772Z,4.80
2019-05-22T18:07:32.563Z,4.85
2019-05-22T18:09:36.053Z,4.85
2019-05-22T18:11:39.363Z,4.37
2019-05-22T18:13:55.351Z,5.05
2019-05-22T18:15:58.796Z,5.37
2019-05-22T18:18:02.209Z,4.72
2019-05-22T18:20:07.398Z,4.72
2019-05-22T18:22:12.225Z,5.12
2019-05-22T18:24:15.613Z,6.17
2019-05-22T18:26:19.199Z,4.62
2019-05-22T18:28:23.052Z,4.72
2019-05-22T18:30:27.377Z,4.95
2019-05-22T18:32:31.795Z,4.92
2019-05-22T18:34:35.225Z,4.67
2019-05-22T18:36:38.514Z,4.85
2019-05-22T18:38:41.872Z,5.28
2019-05-22T18:40:45.609Z,6.90
2019-05-22T18:42:48.931Z,5.30
2019-05-22T18:44:52.230Z,5.17
2019-05-22T18:46:55.624Z,5.03
2019-05-22T18:48:58.972Z,5.10
2019-05-22T18:51:03.282Z,5.62
2019-05-22T18:53:06.778Z,4.45
2019-05-22T18:55:10.167Z,4.62
2019-05-22T18:57:13.685Z,4.83
2019-05-22T18:59:17.031Z,4.90
2019-05-22T19:01:20.796Z,5.12
2019-05-22T19:03:24.449Z,4.97
2019-05-22T19:05:29.237Z,5.05
2019-05-22T19:07:32.542Z,4.87
2019-05-22T19:09:35.807Z,4.92
2019-05-22T19:11:39.348Z,5.03
2019-05-22T19:13:42.722Z,5.05
2019-05-22T19:15:45.982Z,4.45
2019-05-22T19:17:49.378Z,4.78
2019-05-22T19:19:52.720Z,4.90
2019-05-22T19:21:56.085Z,4.97
2019-05-22T19:23:59.394Z,5.20
2019-05-22T19:26:05.687Z,4.97
2019-05-22T19:28:07.774Z,4.58
2019-05-22T19:30:11.876Z,4.83
2019-05-22T19:32:15.876Z,4.87
2019-05-22T19:34:19.634Z,4.78
2019-05-22T19:36:22.983Z,4.92
2019-05-22T19:38:26.344Z,4.83
2019-05-22T19:40:29.610Z,5.30
2019-05-22T19:42:32.940Z,5.47
2019-05-22T19:44:36.855Z,5.10
2019-05-22T19:46:40.239Z,4.92
2019-05-22T19:48:43.834Z,5.25
2019-05-22T19:50:48.047Z,4.67
2019-05-22T19:52:52.456Z,5.10
2019-05-22T19:54:55.742Z,4.83
2019-05-22T19:56:59.293Z,4.90
2019-05-22T19:59:02.892Z,5.83
2019-05-22T20:01:06.567Z,4.95
2019-05-22T20:03:10.128Z,4.87
2019-05-22T20:05:13.663Z,4.92
2019-05-22T20:07:17.426Z,5.50
2019-05-22T20:09:20.967Z,4.65
2019-05-22T20:11:24.505Z,4.70
2019-05-22T20:13:28.423Z,4.65
2019-05-22T20:15:31.980Z,4.78
2019-05-22T20:17:35.250Z,4.35
2019-05-22T20:19:38.546Z,4.53
2019-05-22T20:21:41.818Z,4.40
2019-05-22T20:23:45.558Z,4.58
2019-05-22T20:25:49.120Z,4.28
2019-05-22T20:27:53.044Z,4.30
2019-05-22T20:29:56.323Z,4.42
2019-05-22T20:31:59.659Z,4.45
2019-05-22T20:34:03.295Z,4.40
2019-05-22T20:36:06.848Z,4.60
2019-05-22T20:38:10.252Z,3.98
2019-05-22T20:40:13.707Z,4.55
2019-05-22T20:42:17.100Z,4.00
2019-05-22T20:44:20.674Z,4.58
2019-05-22T20:46:23.945Z,4.05
2019-05-22T20:48:28.492Z,4.67
2019-05-22T20:50:31.834Z,4.17
2019-05-22T20:52:35.381Z,4.35
2019-05-22T20:54:39.226Z,4.35
2019-05-22T20:56:43.873Z,4.20
2019-05-22T20:58:47.195Z,5.17
2019-05-22T21:00:51.605Z,4.30
2019-05-22T21:04:57.467Z,4.20
2019-05-22T21:07:03.240Z,4.35
2019-05-22T21:09:06.755Z,4.50
2019-05-22T21:11:11.005Z,3.80
2019-05-22T21:13:14.894Z,3.98
2019-05-22T21:15:18.252Z,4.50
2019-05-22T21:17:21.595Z,4.33
2019-05-22T21:19:24.915Z,4.03
2019-05-22T21:21:28.441Z,3.80
2019-05-22T21:23:32.171Z,4.08
2019-05-22T21:25:35.533Z,4.33
2019-05-22T21:27:39.245Z,3.50
2019-05-22T21:29:43.571Z,3.70
2019-05-22T21:31:47.793Z,3.95
2019-05-22T21:33:52.074Z,4.15
2019-05-22T21:35:55.500Z,4.10
2019-05-22T21:37:59.929Z,4.37
2019-05-22T21:40:04.418Z,4.20
2019-05-22T21:42:08.309Z,4.17
2019-05-22T21:44:11.623Z,4.50
2019-05-22T21:46:14.947Z,4.40
2019-05-22T21:48:19.888Z,4.70
2019-05-22T21:50:23.593Z,4.65
2019-05-22T21:52:28.038Z,4.17
2019-05-22T21:54:32.154Z,4.80
2019-05-22T21:58:39.904Z,4.97
2019-05-22T22:00:48.066Z,4.20
2019-05-22T22:02:52.782Z,5.17
2019-05-22T22:04:56.042Z,4.72
2019-05-22T22:06:59.510Z,4.72
2019-05-22T22:09:03.819Z,4.28
2019-05-22T22:11:08.885Z,4.55
2019-05-22T22:13:12.634Z,3.87
2019-05-22T22:15:16.910Z,4.40
2019-05-22T22:17:20.857Z,4.80
2019-05-22T22:19:25.376Z,3.83
2019-05-22T22:21:28.693Z,3.95
2019-05-22T22:23:32.029Z,4.87
2019-05-22T22:25:35.826Z,4.20
2019-05-22T22:27:39.870Z,4.40
2019-05-22T22:29:43.122Z,4.58
2019-05-22T22:31:48.294Z,3.92
2019-05-22T22:33:54.862Z,4.28
2019-05-22T22:35:58.457Z,4.42
2019-05-22T22:38:02.454Z,3.80
2019-05-22T22:40:05.723Z,4.53
2019-05-22T22:42:10.706Z,3.92
2019-05-22T22:44:14.922Z,4.15
2019-05-22T22:46:31.822Z,5.10
2019-05-22T22:48:38.983Z,4.25
2019-05-22T22:50:42.237Z,4.53
2019-05-22T22:52:45.865Z,4.30
2019-05-22T22:54:49.249Z,3.98
2019-05-22T22:56:52.636Z,5.10
2019-05-22T22:58:55.901Z,4.83
2019-05-22T23:01:00.115Z,4.75
2019-05-22T23:03:04.213Z,4.25
2019-05-22T23:05:08.028Z,4.05
2019-05-22T23:07:11.816Z,4.12
2019-05-22T23:09:15.199Z,3.95
2019-05-22T23:11:19.229Z,4.55
2019-05-22T23:13:23.465Z,4.33
2019-05-22T23:15:27.498Z,4.45
2019-05-22T23:17:32.126Z,4.15
2019-05-22T23:19:35.743Z,4.22
2019-05-22T23:21:39.737Z,4.22
2019-05-22T23:23:42.359Z,4.10
2019-05-22T23:25:45.617Z,4.62
2019-05-22T23:27:50.511Z,4.58
2019-05-22T23:29:54.175Z,4.03
2019-05-22T23:31:57.598Z,3.83
2019-05-22T23:34:01.242Z,3.92
2019-05-22T23:36:05.449Z,4.28
2019-05-22T23:38:08.755Z,4.12
2019-05-22T23:40:13.064Z,4.45
2019-05-22T23:42:17.157Z,4.30
2019-05-22T23:44:21.497Z,4.33
2019-05-22T23:46:25.136Z,4.33
2019-05-22T23:48:30.071Z,4.08
2019-05-22T23:50:34.077Z,4.50
2019-05-22T23:52:38.004Z,3.75
2019-05-22T23:54:41.301Z,4.37
2019-05-22T23:56:45.687Z,4.45
2019-05-22T23:58:52.679Z,4.55
